Time;durP1;ratioP1;P1;durP2;ratioP2;P2;SDS_P1;SDS_P2;PMS_P1;PMS_P2;Temp;Humidity;BMP_temperature;BMP_pressure;BME280_temperature;BME280_humidity;BME280_pressure;Samples;Min_cycle;Max_cycle;Signal;HPM_P1;HPM_P2
2021/09/25 00:00:37;;;;;;;6.37;5.83;;;;;21.30;100495.00;;;;2069200;28;20226;-56
2021/09/25 00:01:37;;;;;;;6.80;6.17;;;;;21.30;100488.00;;;;2069340;28;20222;-56
2021/09/25 00:02:38;;;;;;;6.43;5.83;;;;;21.30;100484.00;;;;2069915;28;20261;-54
2021/09/25 00:03:38;;;;;;;6.00;5.50;;;;;21.40;100492.00;;;;2069766;28;20749;-54
2021/09/25 00:04:38;;;;;;;6.30;5.70;;;;;21.40;100483.00;;;;2069775;28;20241;-56
2021/09/25 00:05:39;;;;;;;6.80;6.20;;;;;21.30;100494.00;;;;2069844;28;20209;-55
2021/09/25 00:06:39;;;;;;;5.53;5.03;;;;;21.30;100491.00;;;;2069665;28;20384;-58
2021/09/25 00:07:39;;;;;;;6.37;5.77;;;;;21.30;100481.00;;;;2069648;28;20217;-56
2021/09/25 00:08:40;;;;;;;6.03;5.53;;;;;21.40;100492.00;;;;2069780;28;20803;-54
2021/09/25 00:09:40;;;;;;;5.67;5.17;;;;;21.30;100490.00;;;;2068111;28;20230;-56
2021/09/25 00:10:41;;;;;;;6.07;5.57;;;;;21.30;100490.00;;;;2069155;28;20271;-54
2021/09/25 00:11:41;;;;;;;6.20;5.60;;;;;21.30;100492.00;;;;2070037;28;20210;-57
2021/09/25 00:12:41;;;;;;;5.60;5.10;;;;;21.30;100498.00;;;;2069708;28;20229;-57
2021/09/25 00:13:42;;;;;;;5.63;5.13;;;;;21.30;100486.00;;;;2061883;28;20298;-58
2021/09/25 00:14:42;;;;;;;6.43;5.80;;;;;21.30;100491.00;;;;2062189;28;20226;-55
2021/09/25 00:15:43;;;;;;;6.00;5.50;;;;;21.30;100483.00;;;;2062158;28;20297;-56
2021/09/25 00:16:43;;;;;;;5.47;4.97;;;;;21.30;100484.00;;;;2063207;28;20242;-56
2021/09/25 00:17:45;;;;;;;5.80;5.30;;;;;21.30;100482.00;;;;2067830;28;20214;-56
2021/09/25 00:18:45;;;;;;;5.20;4.70;;;;;21.30;100488.00;;;;2067496;28;20252;-56
2021/09/25 00:19:46;;;;;;;6.13;5.57;;;;;21.30;100488.00;;;;2068351;28;20662;-56
2021/09/25 00:20:46;;;;;;;5.60;5.10;;;;;21.30;100484.00;;;;2069576;28;20300;-57
2021/09/25 00:21:46;;;;;;;5.43;5.00;;;;;21.30;100487.00;;;;2070454;28;20218;-55
2021/09/25 00:22:47;;;;;;;5.57;5.07;;;;;21.30;100487.00;;;;2067512;28;20229;-55
2021/09/25 00:23:47;;;;;;;6.07;5.53;;;;;21.30;100481.00;;;;2063376;28;20297;-57
2021/09/25 00:24:47;;;;;;;4.80;4.40;;;;;21.30;100482.00;;;;2062268;28;20222;-57
2021/09/25 00:25:48;;;;;;;5.40;4.90;;;;;21.30;100476.00;;;;2062144;28;20215;-55
2021/09/25 00:26:48;;;;;;;5.17;4.77;;;;;21.20;100477.00;;;;2062364;28;20749;-55
2021/09/25 00:27:49;;;;;;;5.57;5.07;;;;;21.30;100482.00;;;;2062455;28;20234;-55
2021/09/25 00:28:49;;;;;;;5.23;4.73;;;;;21.30;100483.00;;;;2061227;28;20238;-56
2021/09/25 00:29:50;;;;;;;5.60;5.10;;;;;21.30;100476.00;;;;2062325;28;20239;-56
2021/09/25 00:30:50;;;;;;;5.40;4.90;;;;;21.30;100479.00;;;;2061696;28;20904;-56
2021/09/25 00:31:50;;;;;;;5.23;4.73;;;;;21.30;100480.00;;;;2062267;28;20219;-57
2021/09/25 00:32:51;;;;;;;5.30;4.83;;;;;21.30;100476.00;;;;2059726;28;20225;-58
2021/09/25 00:33:52;;;;;;;4.90;4.50;;;;;21.30;100477.00;;;;2062049;28;20264;-59
2021/09/25 00:34:52;;;;;;;4.50;4.10;;;;;21.30;100479.00;;;;2062236;28;20276;-57
2021/09/25 00:35:52;;;;;;;5.27;4.77;;;;;21.30;100479.00;;;;2062003;28;20226;-57
2021/09/25 00:36:53;;;;;;;5.00;4.60;;;;;21.30;100482.00;;;;2069112;28;20210;-54
2021/09/25 00:37:53;;;;;;;5.70;5.20;;;;;21.30;100478.00;;;;2070245;28;20214;-57
2021/09/25 00:38:53;;;;;;;4.83;4.40;;;;;21.30;100485.00;;;;2069377;28;20210;-57
2021/09/25 00:39:54;;;;;;;5.30;4.90;;;;;21.30;100488.00;;;;2070226;28;20241;-58
2021/09/25 00:40:54;;;;;;;4.50;4.10;;;;;21.30;100484.00;;;;2070223;28;20863;-56
2021/09/25 00:41:54;;;;;;;4.80;4.40;;;;;21.30;100482.00;;;;2070248;28;20218;-56
2021/09/25 00:42:55;;;;;;;5.07;4.67;;;;;21.30;100484.00;;;;2070019;28;20324;-57
2021/09/25 00:43:55;;;;;;;4.87;4.47;;;;;21.30;100481.00;;;;2070022;28;20218;-55
2021/09/25 00:44:56;;;;;;;4.60;4.20;;;;;21.30;100491.00;;;;2069900;28;20221;-56
2021/09/25 00:45:56;;;;;;;4.83;4.43;;;;;21.30;100476.00;;;;2069296;28;20260;-55
2021/09/25 00:46:58;;;;;;;5.50;5.00;;;;;21.30;100473.00;;;;2066528;28;20922;-56
2021/09/25 00:47:58;;;;;;;4.40;4.00;;;;;21.30;100475.00;;;;2057726;28;20595;-57
2021/09/25 00:48:58;;;;;;;4.40;4.00;;;;;21.30;100483.00;;;;2060219;28;20223;-56
2021/09/25 00:49:59;;;;;;;4.40;4.00;;;;;21.30;100478.00;;;;2061928;28;20246;-54
2021/09/25 00:50:59;;;;;;;4.80;4.40;;;;;21.30;100474.00;;;;2061937;28;20272;-54
2021/09/25 00:52:00;;;;;;;4.73;4.33;;;;;21.30;100476.00;;;;2061745;28;20222;-55
2021/09/25 00:53:00;;;;;;;3.97;3.67;;;;;21.30;100473.00;;;;2061437;28;20266;-56
2021/09/25 00:54:00;;;;;;;4.00;3.70;;;;;21.30;100473.00;;;;2061386;28;20230;-55
2021/09/25 00:55:01;;;;;;;4.80;4.40;;;;;21.30;100476.00;;;;2061783;28;20574;-57
2021/09/25 00:56:02;;;;;;;4.30;3.97;;;;;21.30;100474.00;;;;2062228;28;20288;-54
2021/09/25 00:57:03;;;;;;;4.60;4.20;;;;;21.30;100476.00;;;;2062566;28;20474;-57
2021/09/25 00:58:04;;;;;;;4.90;4.50;;;;;21.30;100487.00;;;;2052985;28;20610;-56
2021/09/25 00:59:04;;;;;;;4.60;4.20;;;;;21.30;100468.00;;;;2060341;28;20834;-57
2021/09/25 01:00:06;;;;;;;4.80;3.90;;;;;21.30;100483.00;;;;2054548;28;20214;-56
2021/09/25 01:01:06;;;;;;;4.50;4.10;;;;;21.30;100482.00;;;;2062481;28;20221;-55
2021/09/25 01:02:06;;;;;;;4.90;4.50;;;;;21.30;100482.00;;;;2063351;28;20233;-56
2021/09/25 01:03:07;;;;;;;4.43;4.03;;;;;21.30;100489.00;;;;2062903;28;20219;-55
2021/09/25 01:04:07;;;;;;;3.90;3.50;;;;;21.30;100480.00;;;;2061919;28;20219;-57
2021/09/25 01:05:08;;;;;;;4.73;4.33;;;;;21.30;100487.00;;;;2063644;28;20223;-55
2021/09/25 01:06:08;;;;;;;4.67;4.27;;;;;21.30;100479.00;;;;2062838;28;20238;-55
2021/09/25 01:07:08;;;;;;;4.30;3.70;;;;;21.30;100488.00;;;;2062917;28;20326;-54
2021/09/25 01:08:09;;;;;;;4.60;4.20;;;;;21.30;100487.00;;;;2069404;28;20248;-56
2021/09/25 01:09:10;;;;;;;4.70;4.30;;;;;21.30;100493.00;;;;2070564;28;20214;-56
2021/09/25 01:10:10;;;;;;;4.63;4.23;;;;;21.30;100489.00;;;;2071683;28;20511;-55
2021/09/25 01:11:10;;;;;;;4.23;3.90;;;;;21.30;100483.00;;;;2069695;28;20210;-55
2021/09/25 01:12:11;;;;;;;5.00;4.03;;;;;21.30;100484.00;;;;2070685;28;20260;-56
2021/09/25 01:13:11;;;;;;;4.17;3.87;;;;;21.30;100486.00;;;;2071330;28;20309;-56
2021/09/25 01:14:11;;;;;;;4.40;4.00;;;;;21.30;100486.00;;;;2071773;28;20214;-57
2021/09/25 01:15:12;;;;;;;4.03;3.73;;;;;21.30;100492.00;;;;2066458;28;20215;-58
2021/09/25 01:16:12;;;;;;;4.33;3.93;;;;;21.30;100485.00;;;;2063642;28;20215;-56
2021/09/25 01:17:13;;;;;;;3.73;3.40;;;;;21.30;100489.00;;;;2065182;28;20293;-55
2021/09/25 01:18:13;;;;;;;4.27;3.87;;;;;21.30;100497.00;;;;2063462;28;20707;-56
2021/09/25 01:19:14;;;;;;;4.60;4.20;;;;;21.30;100493.00;;;;2062092;28;20802;-55
2021/09/25 01:20:15;;;;;;;3.70;3.40;;;;;21.30;100491.00;;;;2063562;28;20223;-54
2021/09/25 01:21:16;;;;;;;4.30;3.88;;;;;21.30;100490.00;;;;2062709;28;20266;-57
2021/09/25 01:22:16;;;;;;;4.07;3.73;;;;;21.30;100490.00;;;;2062959;28;20227;-54
2021/09/25 01:23:16;;;;;;;3.93;3.53;;;;;21.30;100491.00;;;;2063411;28;20230;-55
2021/09/25 01:24:17;;;;;;;4.47;4.07;;;;;21.30;100493.00;;;;2063544;28;20214;-55
2021/09/25 01:25:17;;;;;;;4.70;3.60;;;;;21.20;100494.00;;;;2063655;28;20230;-57
2021/09/25 01:26:20;;;;;;;3.83;3.53;;;;;21.30;100493.00;;;;2063406;28;20230;-54
2021/09/25 01:27:20;;;;;;;3.92;3.63;;;;;21.30;100491.00;;;;2062883;28;20222;-57
2021/09/25 01:28:20;;;;;;;3.83;3.53;;;;;21.20;100485.00;;;;2062611;28;20305;-57
2021/09/25 01:29:21;;;;;;;3.70;3.40;;;;;21.30;100484.00;;;;2061402;28;20345;-55
2021/09/25 01:30:21;;;;;;;3.80;3.50;;;;;21.30;100474.00;;;;2063727;28;20287;-56
2021/09/25 01:31:21;;;;;;;3.47;3.17;;;;;21.30;100484.00;;;;2063279;28;20237;-56
2021/09/25 01:32:22;;;;;;;4.30;3.30;;;;;21.30;100491.00;;;;2062604;28;20234;-56
2021/09/25 01:33:26;;;;;;;3.90;3.50;;;;;21.30;100489.00;;;;2062567;28;20215;-57
2021/09/25 01:34:26;;;;;;;3.75;3.45;;;;;21.30;100493.00;;;;2063289;28;20298;-56
2021/09/25 01:35:27;;;;;;;4.40;4.00;;;;;21.30;100489.00;;;;2063568;28;20230;-54
2021/09/25 01:36:27;;;;;;;4.30;3.90;;;;;21.30;100492.00;;;;2063208;28;21012;-54
2021/09/25 01:37:27;;;;;;;3.43;3.13;;;;;21.30;100491.00;;;;2063154;28;20226;-55
2021/09/25 01:38:28;;;;;;;3.43;3.13;;;;;21.30;100492.00;;;;2063099;28;20229;-56
2021/09/25 01:39:30;;;;;;;3.90;3.60;;;;;21.30;100492.00;;;;2062301;28;20222;-55
2021/09/25 01:40:31;;;;;;;4.05;3.70;;;;;21.30;100496.00;;;;2061262;28;21060;-55
2021/09/25 01:41:31;;;;;;;3.60;3.30;;;;;21.30;100486.00;;;;2062381;28;20210;-55
2021/09/25 01:42:31;;;;;;;3.43;3.13;;;;;21.30;100496.00;;;;2063082;28;20223;-56
2021/09/25 01:43:32;;;;;;;3.77;3.47;;;;;21.30;100496.00;;;;2063387;28;20583;-56
2021/09/25 01:44:32;;;;;;;3.50;3.20;;;;;21.30;100488.00;;;;2063438;28;20222;-57
2021/09/25 01:45:33;;;;;;;3.80;3.50;;;;;21.30;100491.00;;;;2059787;28;20262;-56
2021/09/25 01:46:33;;;;;;;3.20;3.00;;;;;21.30;100487.00;;;;2064178;28;20282;-56
2021/09/25 01:47:33;;;;;;;3.33;3.10;;;;;21.30;100493.00;;;;2063316;28;20763;-55
2021/09/25 01:48:34;;;;;;;3.90;3.60;;;;;21.30;100489.00;;;;2068232;28;20222;-56
2021/09/25 01:49:34;;;;;;;3.20;2.90;;;;;21.30;100489.00;;;;2068669;28;20230;-55
2021/09/25 01:50:35;;;;;;;3.87;3.57;;;;;21.30;100489.00;;;;2071502;28;20223;-57
2021/09/25 01:51:36;;;;;;;4.00;3.70;;;;;21.30;100481.00;;;;2065221;28;20626;-58
2021/09/25 01:52:36;;;;;;;3.78;3.42;;;;;21.30;100485.00;;;;2061338;28;20219;-55
2021/09/25 01:53:37;;;;;;;3.80;3.50;;;;;21.30;100486.00;;;;2063231;28;20238;-55
2021/09/25 01:54:37;;;;;;;4.00;3.70;;;;;21.20;100476.00;;;;2063320;28;20948;-55
2021/09/25 01:55:37;;;;;;;3.67;3.37;;;;;21.30;100487.00;;;;2063350;28;20215;-57
2021/09/25 01:56:39;;;;;;;3.50;3.20;;;;;21.20;100483.00;;;;2063363;28;20222;-55
2021/09/25 01:57:41;;;;;;;3.88;3.58;;;;;21.30;100484.00;;;;2063241;28;20691;-55
2021/09/25 01:58:42;;;;;;;3.42;3.13;;;;;21.30;100484.00;;;;2062184;28;20218;-54
2021/09/25 01:59:42;;;;;;;3.33;3.03;;;;;21.30;100484.00;;;;2062118;28;20276;-56
2021/09/25 02:00:43;;;;;;;3.93;3.53;;;;;21.30;100480.00;;;;2063023;28;20242;-55
2021/09/25 02:01:43;;;;;;;3.50;3.20;;;;;21.30;100481.00;;;;2063092;28;20282;-55
2021/09/25 02:02:43;;;;;;;3.70;3.40;;;;;21.30;100477.00;;;;2063292;28;20581;-56
2021/09/25 02:03:44;;;;;;;3.20;3.00;;;;;21.30;100479.00;;;;2062846;28;20242;-55
2021/09/25 02:04:47;;;;;;;3.33;3.03;;;;;21.30;100479.00;;;;2058511;28;20262;-56
2021/09/25 02:05:47;;;;;;;3.40;3.10;;;;;21.30;100479.00;;;;2063197;28;20210;-57
2021/09/25 02:06:47;;;;;;;3.50;3.20;;;;;21.30;100476.00;;;;2062937;28;20215;-54
2021/09/25 02:07:48;;;;;;;3.67;3.17;;;;;21.30;100477.00;;;;2061762;28;20230;-55
2021/09/25 02:08:49;;;;;;;3.70;3.40;;;;;21.30;100478.00;;;;2061776;28;20228;-56
2021/09/25 02:09:50;;;;;;;3.17;2.97;;;;;21.30;100487.00;;;;2059216;28;20211;-56
2021/09/25 02:10:50;;;;;;;3.40;3.10;;;;;21.30;100483.00;;;;2062914;28;20214;-54
2021/09/25 02:11:50;;;;;;;3.27;2.97;;;;;21.20;100489.00;;;;2062061;28;20731;-56
2021/09/25 02:12:51;;;;;;;3.87;3.47;;;;;21.30;100485.00;;;;2061800;28;20580;-57
2021/09/25 02:13:52;;;;;;;3.20;2.90;;;;;21.20;100492.00;;;;2062875;28;20211;-56
2021/09/25 02:14:52;;;;;;;3.28;2.97;;;;;21.30;100485.00;;;;2062305;28;20211;-56
2021/09/25 02:15:53;;;;;;;2.60;2.40;;;;;21.30;100486.00;;;;2058253;28;20308;-56
2021/09/25 02:16:53;;;;;;;3.43;3.13;;;;;21.30;100495.00;;;;2064802;28;20229;-57
2021/09/25 02:17:54;;;;;;;3.20;2.90;;;;;21.20;100485.00;;;;2062896;28;20207;-57
2021/09/25 02:18:54;;;;;;;3.20;3.00;;;;;21.30;100483.00;;;;2061949;28;20695;-57
2021/09/25 02:19:54;;;;;;;3.37;3.07;;;;;21.30;100485.00;;;;2063132;28;20626;-56
2021/09/25 02:20:55;;;;;;;2.90;2.63;;;;;21.30;100486.00;;;;2063104;28;20211;-56
2021/09/25 02:21:55;;;;;;;2.80;2.60;;;;;21.30;100482.00;;;;2062640;28;20218;-57
2021/09/25 02:22:55;;;;;;;3.30;3.00;;;;;21.30;100489.00;;;;2062778;28;20636;-56
2021/09/25 02:23:56;;;;;;;3.20;2.90;;;;;21.30;100484.00;;;;2063085;28;20219;-57
2021/09/25 02:24:56;;;;;;;3.43;3.00;;;;;21.30;100484.00;;;;2063156;28;20325;-54
2021/09/25 02:25:56;;;;;;;2.60;2.40;;;;;21.30;100480.00;;;;2062871;28;20223;-54
2021/09/25 02:26:57;;;;;;;3.33;3.03;;;;;21.30;100470.00;;;;2063073;28;20226;-56
2021/09/25 02:27:57;;;;;;;2.87;2.67;;;;;21.20;100476.00;;;;2061947;28;20781;-55
2021/09/25 02:28:58;;;;;;;2.87;2.67;;;;;21.20;100475.00;;;;2060680;28;20227;-55
2021/09/25 02:29:58;;;;;;;3.07;2.77;;;;;21.20;100481.00;;;;2063052;28;20226;-56
2021/09/25 02:30:58;;;;;;;2.90;2.70;;;;;21.20;100486.00;;;;2062754;28;20229;-57
2021/09/25 02:31:59;;;;;;;2.77;2.43;;;;;21.30;100483.00;;;;2062898;28;20215;-55
2021/09/25 02:32:59;;;;;;;3.33;3.03;;;;;21.30;100483.00;;;;2062605;28;20719;-56
2021/09/25 02:34:00;;;;;;;2.93;2.73;;;;;21.30;100476.00;;;;2062736;28;20215;-56
2021/09/25 02:35:00;;;;;;;2.67;2.47;;;;;21.30;100475.00;;;;2061180;28;20222;-56
2021/09/25 02:36:00;;;;;;;3.10;2.80;;;;;21.30;100478.00;;;;2066321;28;20206;-57
2021/09/25 02:37:01;;;;;;;2.97;2.77;;;;;21.20;100468.00;;;;2070427;28;20218;-56
2021/09/25 02:38:02;;;;;;;3.00;2.78;;;;;21.20;100476.00;;;;2070771;28;20218;-55
2021/09/25 02:39:02;;;;;;;3.57;3.07;;;;;21.20;100472.00;;;;2069722;28;20222;-56
2021/09/25 02:40:03;;;;;;;2.90;2.70;;;;;21.30;100476.00;;;;2071022;28;20218;-54
2021/09/25 02:41:04;;;;;;;3.08;2.78;;;;;21.30;100467.00;;;;2071077;28;20210;-57
2021/09/25 02:42:04;;;;;;;2.67;2.47;;;;;21.30;100471.00;;;;2070972;28;20817;-56
2021/09/25 02:43:05;;;;;;;3.50;2.90;;;;;21.30;100472.00;;;;2070991;28;20218;-57
2021/09/25 02:44:05;;;;;;;3.10;2.80;;;;;21.30;100472.00;;;;2070553;28;20218;-56
2021/09/25 02:45:06;;;;;;;3.10;2.90;;;;;21.30;100472.00;;;;2071274;28;20247;-55
2021/09/25 02:46:07;;;;;;;2.90;2.70;;;;;21.30;100464.00;;;;2070866;28;20242;-56
2021/09/25 02:47:07;;;;;;;2.57;2.37;;;;;21.20;100474.00;;;;2062828;28;20733;-55
2021/09/25 02:48:07;;;;;;;4.00;3.03;;;;;21.20;100476.00;;;;2062749;28;20211;-56
2021/09/25 02:49:08;;;;;;;2.90;2.40;;;;;21.20;100466.00;;;;2061194;28;20305;-55
2021/09/25 02:50:10;;;;;;;3.30;2.80;;;;;21.20;100476.00;;;;2065836;28;20223;-55
2021/09/25 02:51:10;;;;;;;3.22;2.92;;;;;21.20;100474.00;;;;2066459;28;20275;-54
2021/09/25 02:52:10;;;;;;;2.90;2.70;;;;;21.20;100467.00;;;;2070581;28;20211;-55
2021/09/25 02:53:11;;;;;;;3.30;3.00;;;;;21.20;100466.00;;;;2070811;28;20289;-56
2021/09/25 02:54:11;;;;;;;2.50;2.30;;;;;21.20;100472.00;;;;2065476;28;20221;-59
2021/09/25 02:55:11;;;;;;;2.90;2.50;;;;;21.30;100474.00;;;;2064626;28;20621;-56
2021/09/25 02:56:12;;;;;;;2.70;2.50;;;;;21.30;100473.00;;;;2070446;28;20711;-56
2021/09/25 02:57:12;;;;;;;3.07;2.77;;;;;21.30;100468.00;;;;2064195;28;20297;-55
2021/09/25 02:58:13;;;;;;;2.60;2.40;;;;;21.20;100460.00;;;;2069837;28;20206;-55
2021/09/25 02:59:13;;;;;;;2.80;2.60;;;;;21.20;100473.00;;;;2069747;28;20206;-55
2021/09/25 03:00:16;;;;;;;2.83;2.63;;;;;21.30;100476.00;;;;2070947;28;20260;-55
2021/09/25 03:01:16;;;;;;;2.15;2.05;;;;;21.30;100466.00;;;;2070258;28;20260;-55
2021/09/25 03:02:16;;;;;;;2.63;2.43;;;;;21.20;100474.00;;;;2070609;28;20788;-55
2021/09/25 03:03:17;;;;;;;2.57;2.37;;;;;21.30;100473.00;;;;2071024;28;20709;-55
2021/09/25 03:04:17;;;;;;;3.27;2.50;;;;;21.30;100468.00;;;;2064944;28;20297;-54
2021/09/25 03:05:17;;;;;;;2.67;2.47;;;;;21.30;100463.00;;;;2068992;28;20228;-55
2021/09/25 03:06:18;;;;;;;2.50;2.30;;;;;21.20;100462.00;;;;2070192;28;20233;-55
2021/09/25 03:07:18;;;;;;;2.93;2.73;;;;;21.20;100472.00;;;;2070572;28;20209;-55
2021/09/25 03:08:18;;;;;;;2.80;2.50;;;;;21.30;100472.00;;;;2062707;28;20207;-55
2021/09/25 03:09:19;;;;;;;2.70;2.50;;;;;21.30;100466.00;;;;2069109;28;20224;-55
2021/09/25 03:10:19;;;;;;;2.73;2.53;;;;;21.20;100471.00;;;;2069826;28;20886;-55
2021/09/25 03:11:19;;;;;;;2.63;2.43;;;;;21.30;100469.00;;;;2062314;28;20226;-56
2021/09/25 03:12:20;;;;;;;2.50;2.30;;;;;21.30;100472.00;;;;2062060;28;20253;-54
2021/09/25 03:13:20;;;;;;;2.80;2.50;;;;;21.30;100471.00;;;;2066418;28;20210;-55
2021/09/25 03:14:21;;;;;;;3.20;2.80;;;;;21.30;100468.00;;;;2068495;28;20575;-55
2021/09/25 03:15:21;;;;;;;2.57;2.37;;;;;21.30;100468.00;;;;2070313;28;20214;-55
2021/09/25 03:16:21;;;;;;;3.37;2.57;;;;;21.30;100467.00;;;;2069584;28;20210;-55
2021/09/25 03:17:22;;;;;;;2.73;2.40;;;;;21.20;100462.00;;;;2062449;28;20207;-56
2021/09/25 03:18:22;;;;;;;3.07;2.80;;;;;21.20;100464.00;;;;2061804;28;20311;-55
2021/09/25 03:19:22;;;;;;;2.60;2.40;;;;;21.20;100466.00;;;;2065465;28;20549;-55
2021/09/25 03:20:23;;;;;;;3.07;2.77;;;;;21.20;100456.00;;;;2070789;28;20207;-55
2021/09/25 03:21:23;;;;;;;3.20;2.63;;;;;21.20;100457.00;;;;2064966;28;20687;-55
2021/09/25 03:22:23;;;;;;;2.77;2.47;;;;;21.20;100460.00;;;;2062366;28;20215;-55
2021/09/25 03:23:24;;;;;;;2.53;2.33;;;;;21.20;100463.00;;;;2067483;28;20249;-55
2021/09/25 03:24:24;;;;;;;2.93;2.63;;;;;21.20;100466.00;;;;2070862;28;20218;-55
2021/09/25 03:25:24;;;;;;;3.10;2.80;;;;;21.20;100461.00;;;;2063520;28;20211;-55
2021/09/25 03:26:25;;;;;;;2.83;2.63;;;;;21.20;100463.00;;;;2062582;28;20294;-54
2021/09/25 03:27:26;;;;;;;3.00;2.70;;;;;21.20;100463.00;;;;2062652;28;20207;-55
2021/09/25 03:28:26;;;;;;;2.73;2.53;;;;;21.20;100460.00;;;;2063214;28;20207;-56
2021/09/25 03:29:26;;;;;;;2.63;2.43;;;;;21.20;100461.00;;;;2068082;28;20280;-55
2021/09/25 03:30:27;;;;;;;2.43;2.23;;;;;21.20;100457.00;;;;2062678;28;20805;-55
2021/09/25 03:31:27;;;;;;;2.50;2.30;;;;;21.20;100458.00;;;;2068833;28;20624;-56
2021/09/25 03:32:27;;;;;;;2.97;2.67;;;;;21.30;100450.00;;;;2067623;28;20258;-55
2021/09/25 03:33:28;;;;;;;3.33;2.63;;;;;21.30;100451.00;;;;2061600;28;20245;-55
2021/09/25 03:34:28;;;;;;;2.60;2.40;;;;;21.20;100455.00;;;;2062366;28;20310;-55
2021/09/25 03:35:29;;;;;;;2.70;2.50;;;;;21.20;100454.00;;;;2066278;28;20210;-55
2021/09/25 03:36:29;;;;;;;2.20;2.00;;;;;21.20;100453.00;;;;2070419;28;20217;-55
2021/09/25 03:37:29;;;;;;;3.10;2.80;;;;;21.20;100456.00;;;;2066352;28;20302;-55
2021/09/25 03:38:30;;;;;;;2.60;2.40;;;;;21.20;100459.00;;;;2064697;28;20305;-55
2021/09/25 03:39:31;;;;;;;2.60;2.40;;;;;21.20;100455.00;;;;2063225;28;20971;-55
2021/09/25 03:40:32;;;;;;;2.40;2.23;;;;;21.20;100461.00;;;;2070186;28;20206;-56
2021/09/25 03:41:33;;;;;;;2.42;2.25;;;;;21.20;100455.00;;;;2066864;28;20807;-55
2021/09/25 03:42:33;;;;;;;3.27;2.97;;;;;21.20;100466.00;;;;2065169;28;20241;-55
2021/09/25 03:43:34;;;;;;;3.00;2.70;;;;;21.20;100457.00;;;;2062232;28;20214;-55
2021/09/25 03:44:34;;;;;;;2.47;2.27;;;;;21.20;100464.00;;;;2066769;28;20686;-55
2021/09/25 03:45:35;;;;;;;2.30;2.10;;;;;21.20;100461.00;;;;2070285;28;20209;-55
2021/09/25 03:46:35;;;;;;;2.60;2.40;;;;;21.20;100468.00;;;;2068795;28;20218;-55
2021/09/25 03:47:35;;;;;;;2.73;2.53;;;;;21.20;100464.00;;;;2066996;28;20213;-55
2021/09/25 03:48:36;;;;;;;3.00;2.70;;;;;21.20;100461.00;;;;2062972;28;20211;-55
2021/09/25 03:49:36;;;;;;;2.50;2.30;;;;;21.20;100456.00;;;;2063935;28;20640;-55
2021/09/25 03:50:36;;;;;;;3.20;2.30;;;;;21.20;100460.00;;;;2070255;28;20214;-55
2021/09/25 03:51:37;;;;;;;2.50;2.30;;;;;21.20;100456.00;;;;2062106;28;20211;-55
2021/09/25 03:52:38;;;;;;;2.10;2.00;;;;;21.20;100457.00;;;;2061356;28;20774;-55
2021/09/25 03:53:38;;;;;;;2.90;2.30;;;;;21.20;100458.00;;;;2063189;28;20214;-55
2021/09/25 03:54:38;;;;;;;1.90;1.80;;;;;21.20;100456.00;;;;2061936;28;20600;-55
2021/09/25 03:55:39;;;;;;;2.67;2.30;;;;;21.20;100458.00;;;;2070156;28;20268;-55
2021/09/25 03:56:39;;;;;;;2.60;2.40;;;;;21.20;100460.00;;;;2067530;28;20210;-55
2021/09/25 03:57:39;;;;;;;2.17;1.97;;;;;21.20;100454.00;;;;2064749;28;20210;-56
2021/09/25 03:58:40;;;;;;;2.83;2.57;;;;;21.20;100449.00;;;;2070477;28;20214;-55
2021/09/25 03:59:40;;;;;;;2.43;2.23;;;;;21.20;100451.00;;;;2066265;28;20206;-54
2021/09/25 04:00:44;;;;;;;2.77;2.47;;;;;21.20;100446.00;;;;2061967;28;20307;-55
2021/09/25 04:01:44;;;;;;;2.53;2.15;;;;;21.20;100460.00;;;;2061234;28;20650;-55
2021/09/25 04:02:44;;;;;;;2.30;2.10;;;;;21.20;100455.00;;;;2063552;28;20218;-55
2021/09/25 04:03:45;;;;;;;2.43;2.23;;;;;21.20;100454.00;;;;2065277;28;20672;-55
2021/09/25 04:04:45;;;;;;;2.30;2.10;;;;;21.20;100462.00;;;;2062747;28;20788;-54
2021/09/25 04:05:46;;;;;;;3.33;2.40;;;;;21.20;100459.00;;;;2062489;28;20253;-54
2021/09/25 04:06:46;;;;;;;2.47;2.27;;;;;21.20;100464.00;;;;2069495;28;20228;-56
2021/09/25 04:07:47;;;;;;;2.33;2.13;;;;;21.20;100458.00;;;;2066780;28;20221;-55
2021/09/25 04:08:47;;;;;;;2.60;2.40;;;;;21.20;100455.00;;;;2062079;28;20248;-55
2021/09/25 04:09:48;;;;;;;2.30;2.10;;;;;21.20;100457.00;;;;2066154;28;20465;-56
2021/09/25 04:10:48;;;;;;;4.20;2.60;;;;;21.20;100452.00;;;;2062721;28;20222;-56
2021/09/25 04:11:48;;;;;;;2.30;2.10;;;;;21.20;100453.00;;;;2062575;28;20219;-55
2021/09/25 04:12:49;;;;;;;2.90;2.60;;;;;21.20;100462.00;;;;2062060;28;20229;-55
2021/09/25 04:13:49;;;;;;;2.43;1.97;;;;;21.20;100461.00;;;;2064812;28;20226;-55
2021/09/25 04:14:49;;;;;;;2.50;2.30;;;;;21.20;100443.00;;;;2070850;28;20226;-54
2021/09/25 04:15:50;;;;;;;2.33;2.13;;;;;21.20;100453.00;;;;2067012;28;20225;-55
2021/09/25 04:16:50;;;;;;;2.60;2.13;;;;;21.20;100451.00;;;;2062479;28;20726;-55
2021/09/25 04:17:51;;;;;;;2.30;2.10;;;;;21.20;100460.00;;;;2062370;28;20222;-55
2021/09/25 04:18:51;;;;;;;2.50;2.30;;;;;21.20;100462.00;;;;2061186;28;20222;-56
2021/09/25 04:19:51;;;;;;;2.63;2.20;;;;;21.20;100457.00;;;;2063387;28;20222;-55
2021/09/25 04:20:52;;;;;;;2.40;2.20;;;;;21.20;100459.00;;;;2070729;28;20253;-55
2021/09/25 04:21:52;;;;;;;2.40;2.20;;;;;21.20;100453.00;;;;2064811;28;20691;-55
2021/09/25 04:22:53;;;;;;;2.53;2.00;;;;;21.20;100451.00;;;;2062371;28;20238;-55
2021/09/25 04:23:54;;;;;;;3.00;2.30;;;;;21.20;100454.00;;;;2063952;28;20215;-54
2021/09/25 04:24:55;;;;;;;2.28;2.08;;;;;21.20;100452.00;;;;2061502;28;20223;-54
2021/09/25 04:25:55;;;;;;;2.17;2.00;;;;;21.20;100457.00;;;;2061631;28;20206;-55
2021/09/25 04:26:55;;;;;;;2.50;2.30;;;;;21.20;100452.00;;;;2070261;28;20253;-54
2021/09/25 04:28:00;;;;;;;2.30;2.10;;;;;21.20;100459.00;;;;2070570;28;20224;-55
2021/09/25 04:29:00;;;;;;;1.85;1.75;;;;;21.20;100458.00;;;;2069374;28;20228;-55
2021/09/25 04:30:01;;;;;;;2.83;2.10;;;;;21.20;100458.00;;;;2070338;28;20237;-56
2021/09/25 04:31:01;;;;;;;2.40;2.20;;;;;21.20;100461.00;;;;2064578;28;20215;-56
2021/09/25 04:32:02;;;;;;;2.80;2.60;;;;;21.20;100463.00;;;;2070786;28;20214;-55
2021/09/25 04:33:02;;;;;;;2.77;2.03;;;;;21.20;100458.00;;;;2064242;28;20214;-54
2021/09/25 04:34:03;;;;;;;2.60;2.37;;;;;21.20;100461.00;;;;2060581;28;20210;-54
2021/09/25 04:35:04;;;;;;;3.60;2.20;;;;;21.20;100460.00;;;;2072259;28;20210;-55
2021/09/25 04:36:04;;;;;;;2.23;2.03;;;;;21.20;100462.00;;;;2070699;28;20241;-55
2021/09/25 04:37:04;;;;;;;2.47;2.27;;;;;21.20;100459.00;;;;2063812;28;20215;-55
2021/09/25 04:38:05;;;;;;;2.20;2.00;;;;;21.20;100457.00;;;;2066156;28;20218;-56
2021/09/25 04:39:05;;;;;;;2.20;1.90;;;;;21.20;100452.00;;;;2070969;28;20318;-56
2021/09/25 04:40:06;;;;;;;2.30;2.10;;;;;21.20;100452.00;;;;2069023;28;20214;-54
2021/09/25 04:41:07;;;;;;;2.67;2.47;;;;;21.20;100459.00;;;;2064150;28;20270;-54
2021/09/25 04:42:07;;;;;;;2.47;2.27;;;;;21.20;100460.00;;;;2063770;28;20465;-56
2021/09/25 04:43:07;;;;;;;2.67;2.47;;;;;21.20;100456.00;;;;2068413;28;20229;-56
2021/09/25 04:44:14;;;;;;;2.20;2.00;;;;;21.20;100456.00;;;;2071032;28;20606;-55
2021/09/25 04:45:14;;;;;;;2.55;2.35;;;;;21.20;100454.00;;;;2064023;28;20219;-56
2021/09/25 04:46:14;;;;;;;2.50;2.30;;;;;21.20;100455.00;;;;2066557;28;20655;-56
2021/09/25 04:47:15;;;;;;;2.30;2.10;;;;;21.20;100456.00;;;;2064163;28;20207;-55
2021/09/25 04:48:15;;;;;;;2.57;2.23;;;;;21.20;100456.00;;;;2062671;28;20599;-55
2021/09/25 04:49:16;;;;;;;2.50;2.30;;;;;21.20;100454.00;;;;2062837;28;20207;-56
2021/09/25 04:50:17;;;;;;;1.90;1.80;;;;;21.20;100458.00;;;;2060285;28;20694;-56
2021/09/25 04:51:17;;;;;;;2.13;1.57;;;;;21.20;100464.00;;;;2072810;28;20226;-55
2021/09/25 04:52:18;;;;;;;2.43;2.23;;;;;21.20;100471.00;;;;2075561;28;20233;-56
2021/09/25 04:53:18;;;;;;;2.33;2.13;;;;;21.20;100465.00;;;;2063786;28;20222;-55
2021/09/25 04:54:18;;;;;;;1.90;1.80;;;;;21.20;100464.00;;;;2070496;28;20225;-56
2021/09/25 04:55:19;;;;;;;2.20;2.00;;;;;21.20;100460.00;;;;2071807;28;20214;-56
2021/09/25 04:56:19;;;;;;;2.30;2.10;;;;;21.20;100465.00;;;;2068034;28;20221;-54
2021/09/25 04:57:20;;;;;;;2.57;2.37;;;;;21.20;100462.00;;;;2071859;28;20229;-56
2021/09/25 04:58:23;;;;;;;2.63;1.90;;;;;21.20;100457.00;;;;2071047;28;20280;-56
2021/09/25 04:59:23;;;;;;;3.50;2.40;;;;;21.20;100460.00;;;;2070220;28;20682;-55